Latest Coastal Weather Observations for Middle Percy Island

IDQ60701

Issued at 2:15 pm EST Friday 25 April 2014 (issued every 10 minutes, with the page automatically refreshed every 10 minutes)

About coastal observations | Map of coastal stations | Coastal observations for QLD | Marine services | Other Formats
Station Details ID: 200001 Name: MIDDLE PERCY ISLAND Lat: -21.66 Lon: 150.27 Height: 208.7 m
Data from the previous 72 hours. | See also: Recent months at Middle Percy Island
Date/Time
EST
Temp

°C
Wind Pressure Rain
since 9am
mm
Weather Cloud Vis
km
Sea
Height
m
Swell
Dir
 
Speed
knots
Gust
knots
hPa Trend Height
m
Period
s
Dir
25/02:00pm 25.6 ESE 10 14 1013.6 - 0.2 - - - - - - -
25/01:30pm 25.3 SE 10 16 1014.7 - 0.2 - - - - - - -
25/01:00pm 25.9 SSE 10 15 1014.1 - 0.2 - - - - - - -
25/12:30pm 25.2 SSE 9 12 1015.7 - 0.2 - - - - - - -
25/12:00pm 24.7 SE 8 12 1014.9 - 0.2 Recent precip. - - - - - -
25/11:30am 25.1 SE 9 13 1016.4 - 0.2 - - - - - - -
25/11:00am 25.2 ESE 9 13 1015.5 - 0.0 - - - - - - -
25/10:30am 24.4 ESE 8 11 1017.0 - 0.0 - - - - - - -
25/10:00am 23.7 SSE 7 9 1016.2 - 0.0 - - - - - - -
25/09:30am 23.5 SE 7 9 1017.4 - 0.0 - - - - - - -
25/09:00am 23.1 SSE 8 11 1016.4 - 24.6 - - - - - - -
25/08:30am 23.5 SE 6 9 1017.3 - 24.6 - - - - - - -
25/08:00am 23.4 ESE 7 10 1016.0 - 24.6 - - - - - - -
25/07:30am 22.6 SSE 6 7 1016.8 - 24.6 - - - - - - -
25/07:00am 22.1 SSE 5 7 1015.4 - 24.6 - - - - - - -
25/06:30am 21.8 SSE 4 6 1016.2 - 24.6 - - - - - - -
25/06:00am 22.1 S 9 11 1014.4 - 24.6 - - - - - - -
25/05:30am 22.2 S 7 9 1015.1 - 24.6 - - - - - - -
25/05:00am 22.0 S 6 8 1013.8 - 24.6 - - - - - - -
25/04:30am 22.1 SSE 6 8 1014.6 - 24.6 - - - - - - -
25/04:00am 22.1 SSE 5 7 1013.6 - 24.6 - - - - - - -
25/03:30am 22.0 SE 5 8 1014.6 - 24.6 - - - - - - -
25/03:00am 22.0 SE 5 6 1013.6 - 24.6 - - - - - - -
25/02:30am 22.0 SSE 5 7 1014.8 - 24.6 - - - - - - -
25/02:00am 21.9 S 5 7 1014.1 - 24.6 - - - - - - -
25/01:30am 22.0 SSE 4 6 1015.2 - 24.6 - - - - - - -
25/01:00am 21.8 ESE 3 4 1014.6 - 24.6 - - - - - - -
25/12:30am 21.9 SSE 4 5 1016.0 - 24.6 - - - - - - -
25/12:00am 21.9 S 5 6 1014.9 - 24.6 - - - - - - -
 
Date/Time
EST
Temp

°C
Wind Pressure Rain
since 9am
mm
Weather Cloud Vis
km
Sea
Height
m
Swell
Dir
 
Speed
knots
Gust
knots
hPa Trend Height
m
Period
s
Dir
24/11:30pm 22.0 S 4 5 1016.2 - 24.6 - - - - - - -
24/11:00pm 21.9 SSE 4 5 1015.2 - 24.6 - - - - - - -
24/10:30pm 21.8 S 5 6 1016.5 - 24.6 - - - - - - -
24/10:00pm 22.0 ESE 4 5 1015.6 - 24.6 - - - - - - -
24/09:30pm 22.0 SE 4 5 1016.9 - 24.6 - - - - - - -
24/09:00pm 21.8 SE 6 8 1015.7 - 24.6 - - - - - - -
24/08:30pm 21.6 ESE 5 7 1016.8 - 24.6 - - - - - - -
24/08:00pm 21.6 ESE 7 8 1015.4 - 24.6 - - - - - - -
24/07:30pm 21.5 ESE 5 8 1016.4 - 24.6 - - - - - - -
24/07:00pm 21.1 ESE 6 8 1014.7 - 24.6 - - - - - - -
24/06:30pm 21.0 ESE 6 7 1015.1 - 24.6 - - - - - - -
24/06:00pm 20.7 ESE 5 7 1013.8 - 24.6 - - - - - - -
24/05:30pm 20.6 E 6 7 1014.5 - 24.6 - - - - - - -
24/05:00pm 20.3 E 5 8 1013.5 - 24.6 - - - - - - -
24/04:30pm 20.4 E 6 12 1014.2 - 24.4 - - - - - - -
24/04:00pm 20.3 E 7 13 1013.0 - 24.4 - - - - - - -
24/03:30pm 20.5 E 10 12 1014.1 - 24.4 - - - - - - -
24/03:00pm 21.4 ESE 6 8 1013.3 - 24.2 Recent precip. - - - - - -
24/02:30pm 21.4 S 8 11 1014.1 - 23.4 - - - - - - -
24/02:00pm 21.1 SSE 7 9 1013.2 - 21.8 - - - - - - -
24/01:30pm 21.5 S 10 13 1014.1 - 15.4 - - - - - - -
24/01:00pm 21.6 SW 10 14 1013.6 - 2.8 - - - - - - -
24/12:30pm 23.1 NW 2 3 1014.7 - 0.4 - - - - - - -
24/12:00pm 23.4 N 3 4 1014.0 - 0.0 - - - - - - -
24/11:30am 23.3 NE 2 4 1015.2 - 0.0 - - - - - - -
24/11:00am 23.4 ENE 6 9 1014.7 - 0.0 - - - - - - -
24/10:30am 24.2 NE 7 10 1016.2 - 0.0 - - - - - - -
24/10:00am 23.1 ENE 9 12 1015.4 - 0.0 - - - - - - -
24/09:30am 22.4 ENE 6 11 1016.6 - 0.0 - - - - - - -
24/09:00am 22.1 E 7 12 1015.0 - 79.6 Recent precip. - - - - - -
24/08:30am 21.9 E 5 9 1016.8 - 79.6 - - - - - - -
24/08:00am 21.6 ESE 6 11 1015.1 - 79.4 - - - - - - -
24/07:30am 21.4 SE 6 12 1016.3 - 79.4 - - - - - - -
24/07:00am 20.8 ENE 11 17 1014.5 - 79.2 - - - - - - -
24/06:30am 20.7 ESE 8 12 1015.5 - 78.8 - - - - - - -
24/06:00am 20.9 SE 9 12 1014.5 - 78.8 Rain - - - - - -
24/05:30am 20.7 ESE 7 10 1015.4 - 77.2 - - - - - - -
24/05:00am 21.1 ESE 6 9 1014.6 - 74.8 - - - - - - -
24/04:30am 21.1 ESE 7 11 1015.0 - 73.8 - - - - - - -
24/04:00am 21.0 ESE 8 14 1013.9 - 72.4 - - - - - - -
24/03:30am 21.1 SE 13 17 1014.9 - 71.4 - - - - - - -
24/03:00am 21.3 SE 9 14 1013.7 - 71.0 Rain - - - - - -
24/02:30am 20.9 ESE 7 11 1014.9 - 70.4 - - - - - - -
24/02:00am 20.7 ESE 5 8 1014.5 - 69.8 - - - - - - -
24/01:30am 21.0 ESE 7 12 1015.6 - 69.6 - - - - - - -
24/01:00am 21.2 ENE 5 10 1014.9 - 67.4 - - - - - - -
24/12:30am 21.2 S 5 9 1016.5 - 64.6 - - - - - - -
24/12:00am 21.4 ESE 7 11 1016.0 - 62.4 Rain - - - - - -
 
Date/Time
EST
Temp

°C
Wind Pressure Rain
since 9am
mm
Weather Cloud Vis
km
Sea
Height
m
Swell
Dir
 
Speed
knots
Gust
knots
hPa Trend Height
m
Period
s
Dir
23/11:30pm 21.2 E 7 10 1017.2 - 53.8 - - - - - - -
23/11:00pm 21.4 ENE 7 16 1016.0 - 41.2 - - - - - - -
23/10:30pm 21.9 ENE 8 11 1017.2 - 29.0 - - - - - - -
23/10:00pm 22.0 E 6 11 1016.3 - 28.8 - - - - - - -
23/09:30pm 21.6 E 6 12 1017.3 - 28.8 - - - - - - -
23/09:00pm 21.8 ESE 7 12 1016.4 - 28.2 Rain - - - - - -
23/08:30pm 21.7 ESE 9 17 1017.2 - 27.2 - - - - - - -
23/08:00pm 21.7 SE 12 19 1015.8 - 26.6 - - - - - - -
23/07:30pm 21.5 SE 12 17 1016.8 - 26.0 - - - - - - -
23/07:00pm 21.4 SE 16 22 1015.0 - 25.6 - - - - - - -
23/06:30pm 21.5 SE 13 18 1016.1 - 24.6 - - - - - - -
23/06:00pm 21.5 ESE 14 19 1014.7 - 24.4 Rain - - - - - -
23/05:30pm 21.3 SE 12 19 1015.7 - 23.6 - - - - - - -
23/05:00pm 21.4 ESE 15 20 1014.3 - 22.6 - - - - - - -
23/04:30pm 21.2 ESE 15 19 1015.2 - 20.2 - - - - - - -
23/04:00pm 21.0 SE 14 17 1014.8 - 10.8 - - - - - - -
23/03:30pm 21.6 S 12 16 1015.4 - 5.0 - - - - - - -
23/03:00pm 21.8 S 11 16 1014.1 - 2.8 Rain - - - - - -
23/02:30pm 22.1 SSE 11 14 1015.1 - 2.0 - - - - - - -
23/02:00pm 22.7 SE 10 15 1014.0 - 1.0 - - - - - - -
23/01:30pm 23.2 ESE 11 15 1015.0 - 0.0 - - - - - - -
23/01:00pm 23.5 ESE 10 16 1014.4 - 0.0 - - - - - - -
23/12:30pm 24.6 ESE 12 18 1015.6 - 0.0 - - - - - - -
23/12:00pm 24.3 SE 10 17 1015.1 - 0.0 - - - - - - -
23/11:30am 24.7 ESE 13 17 1016.9 - 0.0 - - - - - - -
23/11:00am 24.5 SE 11 16 1016.2 - 0.0 - - - - - - -
23/10:30am 24.9 SE 12 17 1017.3 - 0.0 - - - - - - -
23/10:00am 25.2 ESE 12 17 1016.5 - 0.0 - - - - - - -
23/09:30am 24.0 SE 11 15 1017.6 - 0.0 - - - - - - -
23/09:00am 23.4 ESE 8 12 1016.4 - 0.0 - - - - - - -
23/08:30am 22.9 ESE 8 13 1017.5 - 0.0 - - - - - - -
23/08:00am 22.9 ESE 8 12 1016.6 - 0.0 - - - - - - -
23/07:30am 22.3 E 6 11 1017.6 - 0.0 - - - - - - -
23/07:00am 22.1 E 7 13 1016.4 - 0.0 - - - - - - -
23/06:30am 21.6 ESE 6 11 1017.4 - 0.0 - - - - - - -
23/06:00am 21.8 E 7 15 1016.2 - 0.0 - - - - - - -
23/05:30am 23.2 SE 13 19 1017.0 - 0.0 - - - - - - -
23/05:00am 23.0 SE 10 14 1015.8 - 0.0 - - - - - - -
23/04:30am 22.8 SE 8 12 1016.8 - 0.0 - - - - - - -
23/04:00am 22.7 SE 9 13 1015.7 - 0.0 - - - - - - -
23/03:30am 22.3 ESE 10 13 1016.6 - 0.0 - - - - - - -
23/03:00am 22.4 ESE 11 15 1015.7 - 0.0 - - - - - - -
23/02:30am 23.0 ESE 12 19 1016.8 - 0.0 - - - - - - -
23/02:00am 23.0 ESE 11 19 1015.9 - 0.0 - - - - - - -
23/01:30am 23.5 ESE 14 18 1017.3 - 0.0 - - - - - - -
23/01:00am 23.4 SE 14 19 1016.5 - 0.0 - - - - - - -
23/12:30am 23.4 SE 12 18 1017.9 - 0.0 - - - - - - -
23/12:00am 23.4 SE 10 14 1017.2 - 0.0 - - - - - - -
 
Date/Time
EST
Temp

°C
Wind Pressure Rain
since 9am
mm
Weather Cloud Vis
km
Sea
Height
m
Swell
Dir
 
Speed
knots
Gust
knots
hPa Trend Height
m
Period
s
Dir
22/11:30pm 23.4 ESE 11 14 1018.5 - 0.0 - - - - - - -
22/11:00pm 23.1 ESE 10 13 1017.3 - 0.0 - - - - - - -
22/10:30pm 23.2 SE 13 17 1018.8 - 0.0 - - - - - - -
22/10:00pm 23.4 SE 12 18 1017.9 - 0.0 - - - - - - -
22/09:30pm 23.3 SE 10 13 1019.1 - 0.0 - - - - - - -
22/09:00pm 23.0 SE 9 13 1018.1 - 0.0 - - - - - - -
22/08:30pm 23.2 SE 10 14 1019.1 - 0.0 - - - - - - -
22/08:00pm 23.2 SE 10 14 1018.0 - 0.0 - - - - - - -
22/07:30pm 23.2 SE 9 13 1018.5 - 0.0 - - - - - - -
22/07:00pm 23.2 SE 9 14 1017.5 - 0.0 - - - - - - -
22/06:30pm 23.2 SE 11 18 1017.9 - 0.0 - - - - - - -
22/06:00pm 23.3 ESE 10 16 1016.7 - 0.0 - - - - - - -
22/05:30pm 23.3 ESE 8 14 1017.6 - 0.0 - - - - - - -
22/05:00pm 23.5 ESE 7 12 1016.7 - 0.0 - - - - - - -
22/04:30pm 23.7 ESE 10 13 1017.5 - 0.0 - - - - - - -
22/04:00pm 23.7 SE 10 15 1016.7 - 0.0 - - - - - - -
22/03:30pm 24.0 ESE 9 13 1017.6 - 0.0 - - - - - - -
22/03:00pm 24.3 ESE 10 15 1016.6 - 0.0 - - - - - - -
22/02:30pm 24.6 ESE 7 11 1017.7 - 0.0 - - - - - - -

Other Formats:

Comma delimited format used in spreadsheet applications
http://www.bom.gov.au/fwo/IDQ60701/IDQ60701.94372.axf

JavaScript Object Notation format (JSON) in row-major order
http://www.bom.gov.au/fwo/IDQ60701/IDQ60701.94372.json